createdAt,value
2023-03-14T00:01:16.245Z,1.05
2023-03-14T00:03:43.282Z,1.33
2023-03-14T00:06:11.163Z,2.22
2023-03-14T00:08:38.505Z,1.52
2023-03-14T00:11:10.531Z,1.98
2023-03-14T00:13:37.619Z,1.20
2023-03-14T00:16:10.194Z,0.70
2023-03-14T00:18:36.973Z,1.90
2023-03-14T00:21:05.664Z,1.02
2023-03-14T00:23:33.813Z,1.30
2023-03-14T00:26:03.003Z,3.38
2023-03-14T00:28:30.114Z,2.45
2023-03-14T00:30:57.464Z,1.75
2023-03-14T00:33:24.811Z,1.45
2023-03-14T00:35:55.427Z,2.78
2023-03-14T00:38:23.255Z,1.35
2023-03-14T00:40:49.996Z,2.47
2023-03-14T00:43:17.304Z,0.98
2023-03-14T00:45:44.142Z,0.70
2023-03-14T00:48:10.919Z,1.88
2023-03-14T00:50:37.622Z,0.50
2023-03-14T00:53:04.468Z,0.77
2023-03-14T00:55:31.395Z,0.77
2023-03-14T00:57:58.187Z,0.90
2023-03-14T01:00:24.925Z,0.52
2023-03-14T01:02:51.855Z,0.57
2023-03-14T01:05:18.609Z,0.40
2023-03-14T01:07:45.434Z,1.60
2023-03-14T01:10:12.154Z,0.47
2023-03-14T01:12:38.924Z,0.40
2023-03-14T01:15:06.075Z,0.43
2023-03-14T01:17:33.580Z,1.77
2023-03-14T01:20:01.739Z,0.30
2023-03-14T01:22:28.852Z,0.10
2023-03-14T01:24:55.685Z,0.45
2023-03-14T01:27:22.517Z,0.50
2023-03-14T01:29:49.280Z,0.95
2023-03-14T01:32:16.499Z,0.30
2023-03-14T01:34:43.368Z,0.17
2023-03-14T01:37:10.139Z,0.60
2023-03-14T01:39:38.059Z,0.35
2023-03-14T01:42:05.435Z,0.47
2023-03-14T01:44:56.460Z,0.60
2023-03-14T01:47:24.601Z,0.32
2023-03-14T01:50:13.658Z,0.60
2023-03-14T01:52:46.803Z,0.52
2023-03-14T01:55:20.294Z,0.50
2023-03-14T01:57:52.858Z,0.30
2023-03-14T02:00:23.608Z,0.20
2023-03-14T02:02:56.271Z,0.28
2023-03-14T02:05:39.039Z,0.13
2023-03-14T02:08:20.889Z,0.38
2023-03-14T02:10:52.696Z,0.13
2023-03-14T02:13:25.258Z,0.52
2023-03-14T02:16:21.123Z,0.20
2023-03-14T02:19:00.182Z,0.80
2023-03-14T02:21:58.947Z,0.40
2023-03-14T02:24:42.092Z,0.77
2023-03-14T02:27:13.048Z,0.38
2023-03-14T02:29:50.730Z,0.38
2023-03-14T02:32:21.253Z,0.35
2023-03-14T02:34:57.504Z,0.73
2023-03-14T02:37:46.915Z,0.50
2023-03-14T02:40:13.702Z,1.20
2023-03-14T02:42:41.677Z,0.75
2023-03-14T02:45:08.994Z,0.82
2023-03-14T02:47:43.497Z,1.48
2023-03-14T02:50:24.914Z,0.32
2023-03-14T02:52:51.741Z,0.52
2023-03-14T02:55:27.590Z,0.73
2023-03-14T02:57:58.242Z,0.40
2023-03-14T03:00:25.022Z,3.17
2023-03-14T03:02:52.317Z,1.05
2023-03-14T03:05:19.422Z,1.10
2023-03-14T03:07:46.182Z,0.28
2023-03-14T03:10:13.572Z,0.30
2023-03-14T03:12:40.242Z,0.35
2023-03-14T03:15:07.462Z,0.75
2023-03-14T03:17:36.768Z,0.20
2023-03-14T03:20:05.913Z,0.20
2023-03-14T03:22:32.687Z,0.82
2023-03-14T03:24:59.484Z,0.40
2023-03-14T03:27:26.250Z,0.20
2023-03-14T03:29:53.200Z,0.20
2023-03-14T03:32:20.638Z,0.32
2023-03-14T03:34:47.411Z,0.30
2023-03-14T03:37:14.165Z,0.32
2023-03-14T03:39:42.185Z,0.30
2023-03-14T03:42:09.319Z,0.45
2023-03-14T03:44:36.188Z,0.38
2023-03-14T03:47:03.318Z,0.10
2023-03-14T03:49:31.532Z,0.28
2023-03-14T03:51:58.378Z,0.80
2023-03-14T03:54:25.290Z,0.17
2023-03-14T03:56:52.632Z,0.20
2023-03-14T03:59:19.556Z,0.57
2023-03-14T04:01:46.304Z,0.05
2023-03-14T04:04:13.287Z,0.20
2023-03-14T04:06:41.338Z,0.10
2023-03-14T04:09:09.059Z,0.10
2023-03-14T04:11:43.607Z,0.10
2023-03-14T04:14:23.293Z,0.47
2023-03-14T04:16:59.622Z,0.65
2023-03-14T04:19:26.432Z,0.05
2023-03-14T04:21:54.375Z,0.05
2023-03-14T04:24:22.707Z,0.63
2023-03-14T04:26:49.986Z,0.13
2023-03-14T04:29:16.947Z,0.05
2023-03-14T04:31:45.849Z,0.45
2023-03-14T04:34:12.603Z,0.65
2023-03-14T04:36:46.184Z,0.45
2023-03-14T04:39:20.193Z,0.90
2023-03-14T04:41:55.158Z,0.13
2023-03-14T04:44:22.424Z,0.22
2023-03-14T04:46:52.051Z,0.00
2023-03-14T04:49:18.964Z,0.38
2023-03-14T04:51:46.556Z,0.52
2023-03-14T04:54:13.393Z,0.22
2023-03-14T04:56:40.681Z,0.10
2023-03-14T04:59:18.996Z,0.15
2023-03-14T05:01:51.398Z,0.73
2023-03-14T05:04:42.416Z,0.15
2023-03-14T05:07:15.199Z,0.10
2023-03-14T05:10:08.545Z,0.30
2023-03-14T05:13:07.825Z,0.20
2023-03-14T05:15:51.679Z,0.40
2023-03-14T05:18:29.133Z,0.40
2023-03-14T05:21:06.817Z,0.10
2023-03-14T05:24:03.039Z,0.57
2023-03-14T05:26:58.739Z,0.17
2023-03-14T05:29:27.988Z,0.10
2023-03-14T05:32:06.783Z,0.73
2023-03-14T05:35:12.266Z,0.40
2023-03-14T05:37:57.587Z,0.68
2023-03-14T05:40:54.790Z,0.20
2023-03-14T05:43:53.073Z,0.10
2023-03-14T05:46:55.332Z,0.60
2023-03-14T05:49:54.171Z,0.30
2023-03-14T05:52:50.105Z,0.45
2023-03-14T05:55:41.237Z,0.52
2023-03-14T05:58:32.083Z,0.22
2023-03-14T06:01:42.204Z,0.60
2023-03-14T06:04:15.086Z,0.25
2023-03-14T06:06:43.531Z,0.40
2023-03-14T06:09:11.632Z,0.70
2023-03-14T06:11:41.114Z,1.27
2023-03-14T06:14:08.356Z,0.45
2023-03-14T06:16:35.774Z,0.52
2023-03-14T06:19:03.745Z,0.30
2023-03-14T06:21:31.190Z,0.52
2023-03-14T06:23:57.972Z,1.02
2023-03-14T06:26:27.658Z,1.63
2023-03-14T06:28:54.939Z,0.88
2023-03-14T06:31:22.125Z,0.40
2023-03-14T06:33:54.398Z,1.00
2023-03-14T06:36:23.050Z,0.50
2023-03-14T06:38:50.191Z,0.40
2023-03-14T06:41:17.477Z,0.73
2023-03-14T06:43:46.007Z,0.45
2023-03-14T06:46:13.358Z,0.10
2023-03-14T06:48:42.063Z,0.60
2023-03-14T06:51:09.002Z,2.33
2023-03-14T06:53:35.876Z,2.28
2023-03-14T06:56:03.455Z,0.85
2023-03-14T06:58:32.402Z,0.95
2023-03-14T07:01:00.261Z,1.67
2023-03-14T07:03:32.535Z,0.63
2023-03-14T07:06:00.780Z,0.30
2023-03-14T07:08:28.340Z,1.48
2023-03-14T07:10:58.062Z,1.15
2023-03-14T07:13:25.207Z,2.13
2023-03-14T07:16:00.447Z,0.80
2023-03-14T07:18:28.211Z,1.63
2023-03-14T07:20:56.037Z,0.40
2023-03-14T07:23:22.792Z,1.33
2023-03-14T07:25:54.771Z,1.10
2023-03-14T07:28:24.438Z,1.27
2023-03-14T07:30:57.612Z,2.03
2023-03-14T07:33:29.317Z,0.82
2023-03-14T07:35:56.228Z,1.50
2023-03-14T07:38:23.612Z,1.55
2023-03-14T07:41:10.772Z,0.95
2023-03-14T07:43:43.692Z,1.52
2023-03-14T07:46:10.511Z,1.88
2023-03-14T07:48:37.248Z,1.35
2023-03-14T07:51:04.077Z,2.67
2023-03-14T07:53:30.796Z,2.22
2023-03-14T07:55:57.680Z,2.70
2023-03-14T07:58:24.600Z,1.27
2023-03-14T08:00:52.912Z,0.80
2023-03-14T08:03:20.217Z,0.82
2023-03-14T08:05:51.384Z,1.30
2023-03-14T08:08:18.692Z,2.22
2023-03-14T08:10:45.482Z,1.05
2023-03-14T08:13:12.387Z,1.67
2023-03-14T08:15:39.444Z,1.05
2023-03-14T08:18:06.894Z,0.98
2023-03-14T08:20:33.878Z,1.30
2023-03-14T08:23:02.144Z,1.25
2023-03-14T08:25:29.578Z,1.52
2023-03-14T08:27:56.363Z,1.55
2023-03-14T08:30:23.938Z,1.55
2023-03-14T08:32:51.079Z,7.97
2023-03-14T08:35:17.868Z,5.93
2023-03-14T08:37:44.585Z,4.00
2023-03-14T08:40:12.760Z,2.20
2023-03-14T08:42:40.965Z,0.88
2023-03-14T08:45:09.156Z,0.88
2023-03-14T08:47:36.140Z,0.75
2023-03-14T08:50:05.213Z,1.50
2023-03-14T08:52:32.606Z,1.00
2023-03-14T08:54:59.776Z,0.98
2023-03-14T08:57:29.838Z,1.23
2023-03-14T08:59:58.084Z,0.82
2023-03-14T09:02:26.686Z,0.98
2023-03-14T09:04:54.303Z,1.33
2023-03-14T09:07:21.095Z,4.10
2023-03-14T09:09:47.883Z,1.83
2023-03-14T09:12:14.622Z,2.25
2023-03-14T09:14:41.463Z,2.15
2023-03-14T09:17:08.834Z,1.60
2023-03-14T09:19:35.968Z,0.90
2023-03-14T09:22:03.545Z,0.40
2023-03-14T09:24:30.479Z,3.00
2023-03-14T09:26:59.796Z,2.47
2023-03-14T09:29:26.694Z,2.78
2023-03-14T09:31:53.826Z,1.25
2023-03-14T09:34:20.735Z,2.03
2023-03-14T09:36:47.477Z,1.55
2023-03-14T09:39:14.231Z,1.35
2023-03-14T09:41:44.336Z,1.42
2023-03-14T09:44:25.459Z,1.05
2023-03-14T09:46:56.100Z,1.30
2023-03-14T09:52:00.612Z,1.20
2023-03-14T09:54:34.402Z,0.47
2023-03-14T09:57:01.230Z,1.63
2023-03-14T09:59:30.400Z,1.38
2023-03-14T10:02:03.002Z,0.95
2023-03-14T10:04:31.277Z,2.38
2023-03-14T10:06:58.073Z,1.08
2023-03-14T10:09:26.466Z,0.77
2023-03-14T10:11:58.505Z,0.85
2023-03-14T10:14:36.970Z,1.35
2023-03-14T10:17:10.962Z,1.42
2023-03-14T10:19:44.735Z,0.85
2023-03-14T10:22:15.399Z,1.00
2023-03-14T10:24:47.483Z,1.73
2023-03-14T10:27:23.136Z,3.17
2023-03-14T10:29:59.323Z,2.33
2023-03-14T10:32:34.603Z,1.30
2023-03-14T10:35:24.598Z,1.00
2023-03-14T10:37:57.173Z,1.33
2023-03-14T10:40:52.788Z,1.25
2023-03-14T10:43:36.948Z,0.60
2023-03-14T10:46:13.620Z,0.45
2023-03-14T10:49:06.054Z,1.38
2023-03-14T10:51:32.838Z,1.58
2023-03-14T10:53:59.585Z,1.85
2023-03-14T10:56:27.827Z,1.27
2023-03-14T10:58:59.557Z,2.28
2023-03-14T11:01:35.697Z,1.50
2023-03-14T11:04:12.381Z,0.70
2023-03-14T11:06:57.793Z,0.52
2023-03-14T11:09:37.609Z,0.88
2023-03-14T11:12:35.095Z,1.70
2023-03-14T11:15:36.780Z,0.73
2023-03-14T11:20:54.111Z,1.33
2023-03-14T11:23:39.066Z,0.82
2023-03-14T11:26:27.160Z,1.02
2023-03-14T11:29:20.918Z,1.67
2023-03-14T11:31:48.024Z,0.80
2023-03-14T11:34:27.129Z,3.88
2023-03-14T11:37:04.151Z,1.40
2023-03-14T11:39:42.873Z,1.48
2023-03-14T11:42:16.370Z,1.15
2023-03-14T11:44:47.926Z,0.60
2023-03-14T11:47:30.819Z,1.00
2023-03-14T11:50:18.636Z,1.80
2023-03-14T11:52:57.655Z,1.17
2023-03-14T11:55:29.857Z,2.78
2023-03-14T11:58:04.802Z,1.25
2023-03-14T12:00:31.970Z,0.95
2023-03-14T12:03:19.874Z,2.40
2023-03-14T12:06:29.050Z,0.57
2023-03-14T12:08:59.291Z,2.22
2023-03-14T12:12:13.647Z,1.70
2023-03-14T12:14:47.921Z,0.98
2023-03-14T12:17:35.778Z,1.27
2023-03-14T12:20:07.488Z,1.33
2023-03-14T12:22:42.532Z,0.70
2023-03-14T12:25:12.113Z,1.42
2023-03-14T12:27:44.394Z,2.33
2023-03-14T12:30:17.301Z,0.65
2023-03-14T12:33:04.130Z,0.95
2023-03-14T12:35:37.721Z,1.73
2023-03-14T12:38:11.343Z,1.27
2023-03-14T12:40:53.517Z,2.38
2023-03-14T12:43:27.657Z,2.20
2023-03-14T12:46:19.284Z,2.60
2023-03-14T12:48:48.625Z,2.20
2023-03-14T12:51:18.366Z,2.53
2023-03-14T12:54:22.723Z,1.98
2023-03-14T12:57:09.240Z,2.60
2023-03-14T12:59:41.838Z,2.47
2023-03-14T13:02:08.490Z,1.90
2023-03-14T13:04:46.571Z,3.97
2023-03-14T13:07:30.537Z,3.10
2023-03-14T13:10:25.616Z,1.58
2023-03-14T13:13:03.973Z,2.13
2023-03-14T13:15:39.255Z,2.47
2023-03-14T13:18:25.195Z,2.35
2023-03-14T13:20:59.971Z,2.92
2023-03-14T13:23:36.972Z,2.15
2023-03-14T13:26:04.137Z,1.80
2023-03-14T13:28:32.221Z,3.08
2023-03-14T13:31:04.357Z,1.70
2023-03-14T13:33:31.622Z,2.40
2023-03-14T13:36:03.608Z,2.88
2023-03-14T13:38:33.642Z,2.38
2023-03-14T13:41:05.023Z,2.05
2023-03-14T13:43:34.568Z,1.33
2023-03-14T13:46:15.081Z,1.65
2023-03-14T13:48:51.248Z,1.00
2023-03-14T13:51:24.742Z,0.75
2023-03-14T13:53:52.909Z,0.60
2023-03-14T13:56:25.663Z,2.28
2023-03-14T13:58:52.619Z,0.70
2023-03-14T14:01:24.439Z,2.22
2023-03-14T14:03:53.894Z,1.65
2023-03-14T14:06:40.060Z,2.35
2023-03-14T14:09:20.895Z,2.05
2023-03-14T14:12:15.471Z,2.05
2023-03-14T14:14:58.803Z,2.13
2023-03-14T14:17:32.072Z,1.00
2023-03-14T14:20:01.215Z,2.00
2023-03-14T14:22:28.412Z,1.92
2023-03-14T14:24:55.424Z,4.97
2023-03-14T14:27:28.180Z,4.80
2023-03-14T14:30:08.310Z,5.35
2023-03-14T14:32:39.828Z,2.10
2023-03-14T14:35:08.656Z,1.85
2023-03-14T14:37:43.021Z,1.63
2023-03-14T14:40:22.490Z,1.88
2023-03-14T14:42:50.797Z,4.13
2023-03-14T14:45:23.028Z,2.95
2023-03-14T14:48:00.402Z,2.35
2023-03-14T14:50:35.702Z,3.38
2023-03-14T14:53:22.174Z,2.78
2023-03-14T14:55:52.378Z,3.17
2023-03-14T14:58:22.654Z,2.33
2023-03-14T15:01:14.858Z,1.95
2023-03-14T15:03:44.142Z,1.17
2023-03-14T15:06:15.934Z,1.92
2023-03-14T15:08:45.831Z,2.00
2023-03-14T15:11:18.233Z,2.03
2023-03-14T15:13:45.114Z,2.47
2023-03-14T15:16:13.287Z,2.13
2023-03-14T15:18:40.082Z,1.58
2023-03-14T15:21:06.950Z,4.93
2023-03-14T15:23:33.664Z,2.22
2023-03-14T15:26:00.394Z,2.50
2023-03-14T15:28:29.931Z,1.15
2023-03-14T15:30:58.726Z,1.55
2023-03-14T15:33:27.032Z,0.77
2023-03-14T15:35:54.714Z,3.25
2023-03-14T15:38:24.117Z,5.88
2023-03-14T15:40:52.587Z,5.05
2023-03-14T15:43:20.416Z,4.68
2023-03-14T15:45:47.392Z,5.25
2023-03-14T15:48:22.395Z,5.47
2023-03-14T15:50:49.135Z,5.38
2023-03-14T15:53:15.912Z,5.93
2023-03-14T15:55:42.882Z,5.20
2023-03-14T15:58:20.659Z,5.72
2023-03-14T16:00:48.436Z,3.08
2023-03-14T16:03:15.274Z,2.83
2023-03-14T16:05:42.350Z,5.47
2023-03-14T16:08:09.405Z,5.22
2023-03-14T16:10:36.325Z,2.00
2023-03-14T16:13:03.249Z,1.30
2023-03-14T16:15:29.979Z,1.63
2023-03-14T16:17:57.349Z,2.70
2023-03-14T16:20:24.571Z,1.50
2023-03-14T16:22:51.302Z,1.88
2023-03-14T16:25:19.122Z,4.18
2023-03-14T16:27:46.234Z,1.75
2023-03-14T16:30:16.441Z,2.97
2023-03-14T16:32:46.100Z,2.53
2023-03-14T16:35:12.994Z,3.10
2023-03-14T16:37:39.745Z,2.47
2023-03-14T16:43:14.833Z,2.47
2023-03-14T16:45:43.153Z,4.28
2023-03-14T16:48:09.860Z,2.97
2023-03-14T16:50:36.833Z,1.13
2023-03-14T16:53:03.693Z,2.72
2023-03-14T16:55:30.501Z,2.35
2023-03-14T16:57:57.281Z,2.35
2023-03-14T17:00:24.056Z,2.53
2023-03-14T17:02:50.790Z,2.75
2023-03-14T17:05:17.626Z,2.08
2023-03-14T17:07:44.397Z,4.15
2023-03-14T17:10:11.514Z,1.25
2023-03-14T17:12:38.290Z,2.65
2023-03-14T17:15:05.330Z,2.15
2023-03-14T17:17:31.991Z,2.70
2023-03-14T17:19:58.704Z,2.85
2023-03-14T17:22:30.544Z,3.47
2023-03-14T17:24:58.686Z,10.95
2023-03-14T17:27:25.432Z,4.82
2023-03-14T17:29:52.556Z,11.73
2023-03-14T17:32:19.538Z,5.43
2023-03-14T17:34:46.469Z,6.70
2023-03-14T17:37:13.754Z,9.15
2023-03-14T17:39:40.480Z,6.57
2023-03-14T17:42:07.486Z,7.15
2023-03-14T17:44:34.931Z,7.68
2023-03-14T17:47:02.656Z,6.57
2023-03-14T17:49:29.389Z,8.18
2023-03-14T17:51:56.110Z,9.45
2023-03-14T17:54:22.924Z,6.22
2023-03-14T17:56:49.833Z,10.45
2023-03-14T17:59:16.559Z,4.75
2023-03-14T18:01:43.603Z,3.47
2023-03-14T18:04:10.533Z,2.50
2023-03-14T18:06:37.427Z,2.88
2023-03-14T18:09:06.078Z,1.98
2023-03-14T18:11:36.226Z,3.20
2023-03-14T18:14:11.087Z,3.13
2023-03-14T18:16:37.848Z,1.88
2023-03-14T18:19:04.535Z,2.75
2023-03-14T18:21:31.325Z,2.92
2023-03-14T18:23:58.278Z,3.30
2023-03-14T18:26:25.864Z,4.57
2023-03-14T18:28:52.561Z,3.15
2023-03-14T18:31:22.503Z,2.95
2023-03-14T18:33:49.919Z,4.22
2023-03-14T18:36:17.252Z,3.33
2023-03-14T18:38:48.503Z,3.38
2023-03-14T18:41:18.972Z,4.40
2023-03-14T18:43:46.060Z,2.47
2023-03-14T18:46:13.631Z,2.90
2023-03-14T18:48:42.703Z,3.67
2023-03-14T18:51:12.523Z,1.98
2023-03-14T18:53:39.523Z,3.17
2023-03-14T18:56:06.828Z,3.53
2023-03-14T18:58:34.000Z,2.83
2023-03-14T19:01:03.136Z,4.18
2023-03-14T19:03:31.107Z,4.90
2023-03-14T19:05:58.990Z,4.10
2023-03-14T19:08:28.545Z,4.38
2023-03-14T19:10:59.163Z,5.32
2023-03-14T19:13:27.529Z,6.22
2023-03-14T19:15:54.275Z,6.13
2023-03-14T19:18:21.133Z,5.65
2023-03-14T19:21:06.842Z,5.78
2023-03-14T19:23:35.471Z,5.70
2023-03-14T19:26:04.751Z,8.52
2023-03-14T19:28:34.493Z,11.02
2023-03-14T19:31:05.390Z,13.98
2023-03-14T19:35:59.787Z,7.43
2023-03-14T19:38:26.664Z,7.15
2023-03-14T19:40:58.466Z,10.32
2023-03-14T19:43:26.319Z,5.35
2023-03-14T19:45:55.731Z,5.30
2023-03-14T19:48:30.715Z,5.57
2023-03-14T19:51:00.754Z,4.53
2023-03-14T19:53:28.485Z,6.28
2023-03-14T19:55:55.438Z,4.78
2023-03-14T19:58:23.849Z,5.35
2023-03-14T20:00:51.632Z,4.47
2023-03-14T20:03:18.612Z,3.60
2023-03-14T20:05:45.362Z,3.70
2023-03-14T20:08:12.332Z,5.20
2023-03-14T20:10:39.228Z,5.43
2023-03-14T20:13:15.578Z,9.15
2023-03-14T20:15:46.236Z,13.40
2023-03-14T20:18:13.379Z,7.05
2023-03-14T20:20:41.831Z,4.72
2023-03-14T20:23:09.411Z,2.95
2023-03-14T20:25:37.850Z,2.28
2023-03-14T20:28:05.332Z,1.30
2023-03-14T20:30:33.179Z,1.52
2023-03-14T20:33:04.520Z,3.58
2023-03-14T20:35:31.710Z,3.97
2023-03-14T20:37:58.455Z,2.55
2023-03-14T20:40:28.807Z,1.83
2023-03-14T20:42:58.797Z,2.33
2023-03-14T20:45:25.664Z,2.80
2023-03-14T20:47:52.428Z,3.60
2023-03-14T20:50:26.784Z,4.53
2023-03-14T20:52:53.922Z,2.90
2023-03-14T20:55:20.828Z,3.40
2023-03-14T20:57:47.549Z,12.15
2023-03-14T21:00:16.130Z,34.63
2023-03-14T21:02:43.234Z,7.45
2023-03-14T21:05:12.043Z,9.45
2023-03-14T21:07:41.740Z,8.60
2023-03-14T21:10:12.805Z,13.00
2023-03-14T21:12:41.209Z,23.13
2023-03-14T21:15:09.199Z,10.18
2023-03-14T21:17:37.367Z,5.20
2023-03-14T21:20:06.747Z,4.38
2023-03-14T21:22:33.451Z,2.83
2023-03-14T21:25:00.298Z,2.80
2023-03-14T21:27:27.575Z,1.40
2023-03-14T21:29:54.240Z,1.27
2023-03-14T21:32:21.064Z,1.85
2023-03-14T21:34:49.659Z,1.48
2023-03-14T21:37:17.195Z,2.15
2023-03-14T21:39:44.049Z,4.53
2023-03-14T21:42:10.816Z,10.45
2023-03-14T21:44:37.563Z,2.92
2023-03-14T21:47:08.533Z,1.77
2023-03-14T21:52:11.153Z,1.50
2023-03-14T21:54:37.949Z,2.38
2023-03-14T21:57:06.481Z,1.73
2023-03-14T21:59:36.139Z,2.63
2023-03-14T22:02:12.717Z,3.40
2023-03-14T22:04:40.201Z,3.05
2023-03-14T22:07:13.363Z,2.20
2023-03-14T22:09:42.152Z,2.70
2023-03-14T22:12:11.075Z,1.45
2023-03-14T22:14:37.825Z,0.95
2023-03-14T22:17:05.236Z,0.82
2023-03-14T22:19:32.541Z,1.23
2023-03-14T22:21:59.499Z,1.35
2023-03-14T22:24:26.650Z,0.65
2023-03-14T22:26:55.093Z,1.48
2023-03-14T22:29:23.110Z,1.58
2023-03-14T22:31:50.192Z,1.50
2023-03-14T22:34:17.102Z,2.00
2023-03-14T22:36:43.909Z,1.75
2023-03-14T22:39:10.618Z,0.82
2023-03-14T22:41:37.449Z,0.60
2023-03-14T22:44:04.478Z,1.17
2023-03-14T22:46:31.306Z,0.88
2023-03-14T22:48:58.128Z,0.65
2023-03-14T22:51:24.980Z,0.73
2023-03-14T22:53:51.675Z,0.50
2023-03-14T22:56:18.393Z,0.70
2023-03-14T22:58:45.061Z,1.38
2023-03-14T23:01:11.945Z,1.35
2023-03-14T23:03:38.726Z,1.85
2023-03-14T23:06:06.421Z,1.50
2023-03-14T23:08:33.849Z,1.10
2023-03-14T23:11:02.707Z,0.80
2023-03-14T23:13:30.821Z,0.93
2023-03-14T23:15:59.008Z,0.70
2023-03-14T23:18:27.691Z,0.68
2023-03-14T23:21:17.712Z,1.58
2023-03-14T23:23:46.675Z,2.03
2023-03-14T23:26:16.060Z,1.95
2023-03-14T23:28:43.548Z,2.10
2023-03-14T23:31:10.540Z,2.17
2023-03-14T23:33:37.652Z,2.35
2023-03-14T23:36:05.341Z,3.58
2023-03-14T23:38:33.559Z,6.32
2023-03-14T23:41:01.513Z,4.60
2023-03-14T23:43:29.492Z,3.35
2023-03-14T23:45:57.291Z,7.70
2023-03-14T23:48:26.956Z,2.90
2023-03-14T23:50:57.792Z,2.33
2023-03-14T23:53:26.305Z,2.90
2023-03-14T23:55:53.566Z,2.33
2023-03-14T23:58:21.643Z,2.78
